sensor_id;sensor_type;location;lat;lon;timestamp;temperature;humidity
72128;DHT22;60000;51.030;7.024;2023-04-07T00:02:16;7.51;92.32
72128;DHT22;60000;51.030;7.024;2023-04-07T00:04:42;7.56;92.32
72128;DHT22;60000;51.030;7.024;2023-04-07T00:07:07;7.53;92.31
72128;DHT22;60000;51.030;7.024;2023-04-07T00:09:33;7.57;92.31
72128;DHT22;60000;51.030;7.024;2023-04-07T00:11:58;7.51;92.43
72128;DHT22;60000;51.030;7.024;2023-04-07T00:14:25;7.56;92.36
72128;DHT22;60000;51.030;7.024;2023-04-07T00:16:51;7.54;92.42
72128;DHT22;60000;51.030;7.024;2023-04-07T00:19:16;7.59;92.37
72128;DHT22;60000;51.030;7.024;2023-04-07T00:21:41;7.60;92.44
72128;DHT22;60000;51.030;7.024;2023-04-07T00:24:07;7.60;92.48
72128;DHT22;60000;51.030;7.024;2023-04-07T00:26:32;7.61;92.47
72128;DHT22;60000;51.030;7.024;2023-04-07T00:28:58;7.57;92.55
72128;DHT22;60000;51.030;7.024;2023-04-07T00:31:23;7.57;92.52
72128;DHT22;60000;51.030;7.024;2023-04-07T00:33:49;7.59;92.61
72128;DHT22;60000;51.030;7.024;2023-04-07T00:36:15;7.60;92.66
72128;DHT22;60000;51.030;7.024;2023-04-07T00:38:40;7.59;92.58
72128;DHT22;60000;51.030;7.024;2023-04-07T00:41:06;7.59;92.64
72128;DHT22;60000;51.030;7.024;2023-04-07T00:43:31;7.59;92.59
72128;DHT22;60000;51.030;7.024;2023-04-07T00:45:57;7.63;92.61
72128;DHT22;60000;51.030;7.024;2023-04-07T00:48:22;7.60;92.70
72128;DHT22;60000;51.030;7.024;2023-04-07T00:50:48;7.61;92.66
72128;DHT22;60000;51.030;7.024;2023-04-07T00:53:14;7.63;92.63
72128;DHT22;60000;51.030;7.024;2023-04-07T00:55:39;7.63;92.70
72128;DHT22;60000;51.030;7.024;2023-04-07T00:58:05;7.63;92.81
72128;DHT22;60000;51.030;7.024;2023-04-07T01:00:59;7.66;92.81
72128;DHT22;60000;51.030;7.024;2023-04-07T01:03:29;7.66;92.75
72128;DHT22;60000;51.030;7.024;2023-04-07T01:06:00;7.66;92.86
72128;DHT22;60000;51.030;7.024;2023-04-07T01:08:34;7.64;92.86
72128;DHT22;60000;51.030;7.024;2023-04-07T01:11:07;7.64;92.92
72128;DHT22;60000;51.030;7.024;2023-04-07T01:13:42;7.64;92.98
72128;DHT22;60000;51.030;7.024;2023-04-07T01:16:12;7.61;93.01
72128;DHT22;60000;51.030;7.024;2023-04-07T01:18:41;7.66;93.02
72128;DHT22;60000;51.030;7.024;2023-04-07T01:21:10;7.64;92.98
72128;DHT22;60000;51.030;7.024;2023-04-07T01:23:41;7.63;93.02
72128;DHT22;60000;51.030;7.024;2023-04-07T01:26:25;7.66;92.98
72128;DHT22;60000;51.030;7.024;2023-04-07T01:29:06;7.67;93.08
72128;DHT22;60000;51.030;7.024;2023-04-07T01:31:37;7.70;93.17
72128;DHT22;60000;51.030;7.024;2023-04-07T01:34:03;7.71;93.01
72128;DHT22;60000;51.030;7.024;2023-04-07T01:36:30;7.71;93.07
72128;DHT22;60000;51.030;7.024;2023-04-07T01:38:58;7.70;93.11
72128;DHT22;60000;51.030;7.024;2023-04-07T01:41:24;7.70;93.27
72128;DHT22;60000;51.030;7.024;2023-04-07T01:43:51;7.73;93.30
72128;DHT22;60000;51.030;7.024;2023-04-07T01:46:17;7.73;93.23
72128;DHT22;60000;51.030;7.024;2023-04-07T01:48:43;7.74;93.31
72128;DHT22;60000;51.030;7.024;2023-04-07T01:51:09;7.74;93.38
72128;DHT22;60000;51.030;7.024;2023-04-07T01:53:36;7.77;93.38
72128;DHT22;60000;51.030;7.024;2023-04-07T01:56:03;7.74;93.42
72128;DHT22;60000;51.030;7.024;2023-04-07T01:58:28;7.77;93.35
72128;DHT22;60000;51.030;7.024;2023-04-07T02:00:54;7.75;93.37
72128;DHT22;60000;51.030;7.024;2023-04-07T02:03:22;7.78;93.35
72128;DHT22;60000;51.030;7.024;2023-04-07T02:05:54;7.81;93.33
72128;DHT22;60000;51.030;7.024;2023-04-07T02:08:20;7.80;93.28
72128;DHT22;60000;51.030;7.024;2023-04-07T02:10:48;7.80;93.31
72128;DHT22;60000;51.030;7.024;2023-04-07T02:13:17;7.81;93.35
72128;DHT22;60000;51.030;7.024;2023-04-07T02:15:43;7.82;93.37
72128;DHT22;60000;51.030;7.024;2023-04-07T02:18:10;7.82;93.33
72128;DHT22;60000;51.030;7.024;2023-04-07T02:20:37;7.84;93.39
72128;DHT22;60000;51.030;7.024;2023-04-07T02:23:03;7.87;93.32
72128;DHT22;60000;51.030;7.024;2023-04-07T02:25:30;7.85;93.30
72128;DHT22;60000;51.030;7.024;2023-04-07T02:27:57;7.84;93.37
72128;DHT22;60000;51.030;7.024;2023-04-07T02:30:24;7.85;93.33
72128;DHT22;60000;51.030;7.024;2023-04-07T02:32:50;7.87;93.33
72128;DHT22;60000;51.030;7.024;2023-04-07T02:35:15;7.91;93.34
72128;DHT22;60000;51.030;7.024;2023-04-07T02:37:41;7.87;93.36
72128;DHT22;60000;51.030;7.024;2023-04-07T02:40:07;7.90;93.37
72128;DHT22;60000;51.030;7.024;2023-04-07T02:42:33;7.94;93.37
72128;DHT22;60000;51.030;7.024;2023-04-07T02:44:58;7.95;93.46
72128;DHT22;60000;51.030;7.024;2023-04-07T02:47:24;7.97;93.54
72128;DHT22;60000;51.030;7.024;2023-04-07T02:49:49;8.01;93.52
72128;DHT22;60000;51.030;7.024;2023-04-07T02:52:15;7.99;93.53
72128;DHT22;60000;51.030;7.024;2023-04-07T02:54:41;8.01;93.58
72128;DHT22;60000;51.030;7.024;2023-04-07T02:57:06;8.08;93.69
72128;DHT22;60000;51.030;7.024;2023-04-07T02:59:32;8.05;93.70
72128;DHT22;60000;51.030;7.024;2023-04-07T03:01:57;8.09;93.87
72128;DHT22;60000;51.030;7.024;2023-04-07T03:04:22;8.13;93.88
72128;DHT22;60000;51.030;7.024;2023-04-07T03:06:48;8.15;93.81
72128;DHT22;60000;51.030;7.024;2023-04-07T03:09:13;8.15;93.76
72128;DHT22;60000;51.030;7.024;2023-04-07T03:11:38;8.15;93.75
72128;DHT22;60000;51.030;7.024;2023-04-07T03:14:05;8.16;93.81
72128;DHT22;60000;51.030;7.024;2023-04-07T03:16:31;8.18;93.89
72128;DHT22;60000;51.030;7.024;2023-04-07T03:18:56;8.18;93.96
72128;DHT22;60000;51.030;7.024;2023-04-07T03:21:21;8.21;93.99
72128;DHT22;60000;51.030;7.024;2023-04-07T03:23:47;8.24;93.96
72128;DHT22;60000;51.030;7.024;2023-04-07T03:26:12;8.25;94.17
72128;DHT22;60000;51.030;7.024;2023-04-07T03:28:37;8.28;94.11
72128;DHT22;60000;51.030;7.024;2023-04-07T03:31:03;8.33;94.16
72128;DHT22;60000;51.030;7.024;2023-04-07T03:33:28;8.35;94.15
72128;DHT22;60000;51.030;7.024;2023-04-07T03:35:53;8.36;94.18
72128;DHT22;60000;51.030;7.024;2023-04-07T03:38:19;8.36;94.14
72128;DHT22;60000;51.030;7.024;2023-04-07T03:40:45;8.41;94.18
72128;DHT22;60000;51.030;7.024;2023-04-07T03:43:11;8.38;94.18
72128;DHT22;60000;51.030;7.024;2023-04-07T03:45:39;8.41;94.14
72128;DHT22;60000;51.030;7.024;2023-04-07T03:48:04;8.42;94.06
72128;DHT22;60000;51.030;7.024;2023-04-07T03:50:30;8.42;94.02
72128;DHT22;60000;51.030;7.024;2023-04-07T03:52:55;8.43;93.97
72128;DHT22;60000;51.030;7.024;2023-04-07T03:55:21;8.45;93.96
72128;DHT22;60000;51.030;7.024;2023-04-07T03:57:47;8.45;93.91
72128;DHT22;60000;51.030;7.024;2023-04-07T04:00:12;8.46;93.82
72128;DHT22;60000;51.030;7.024;2023-04-07T04:02:38;8.46;93.77
72128;DHT22;60000;51.030;7.024;2023-04-07T04:05:03;8.45;93.76
72128;DHT22;60000;51.030;7.024;2023-04-07T04:07:29;8.43;93.69
72128;DHT22;60000;51.030;7.024;2023-04-07T04:09:54;8.43;93.67
72128;DHT22;60000;51.030;7.024;2023-04-07T04:12:20;8.42;93.59
72128;DHT22;60000;51.030;7.024;2023-04-07T04:14:45;8.43;93.51
72128;DHT22;60000;51.030;7.024;2023-04-07T04:17:10;8.38;93.42
72128;DHT22;60000;51.030;7.024;2023-04-07T04:19:36;8.43;93.36
72128;DHT22;60000;51.030;7.024;2023-04-07T04:22:01;8.41;93.26
72128;DHT22;60000;51.030;7.024;2023-04-07T04:24:27;8.36;93.30
72128;DHT22;60000;51.030;7.024;2023-04-07T04:26:52;8.35;93.27
72128;DHT22;60000;51.030;7.024;2023-04-07T04:29:17;8.32;93.23
72128;DHT22;60000;51.030;7.024;2023-04-07T04:31:42;8.36;93.14
72128;DHT22;60000;51.030;7.024;2023-04-07T04:34:08;8.35;93.13
72128;DHT22;60000;51.030;7.024;2023-04-07T04:36:33;8.32;93.09
72128;DHT22;60000;51.030;7.024;2023-04-07T04:38:58;8.32;93.06
72128;DHT22;60000;51.030;7.024;2023-04-07T04:41:24;8.31;93.08
72128;DHT22;60000;51.030;7.024;2023-04-07T04:43:49;8.31;93.00
72128;DHT22;60000;51.030;7.024;2023-04-07T04:46:16;8.32;92.98
72128;DHT22;60000;51.030;7.024;2023-04-07T04:48:41;8.32;92.98
72128;DHT22;60000;51.030;7.024;2023-04-07T04:51:07;8.31;92.99
72128;DHT22;60000;51.030;7.024;2023-04-07T04:53:32;8.29;92.95
72128;DHT22;60000;51.030;7.024;2023-04-07T04:55:57;8.31;92.96
72128;DHT22;60000;51.030;7.024;2023-04-07T04:58:23;8.31;92.89
72128;DHT22;60000;51.030;7.024;2023-04-07T05:00:48;8.29;92.96
72128;DHT22;60000;51.030;7.024;2023-04-07T05:03:13;8.28;93.06
72128;DHT22;60000;51.030;7.024;2023-04-07T05:05:38;8.29;93.12
72128;DHT22;60000;51.030;7.024;2023-04-07T05:08:04;8.29;93.09
72128;DHT22;60000;51.030;7.024;2023-04-07T05:10:30;8.31;93.04
72128;DHT22;60000;51.030;7.024;2023-04-07T05:12:55;8.29;93.08
72128;DHT22;60000;51.030;7.024;2023-04-07T05:15:20;8.28;93.09
72128;DHT22;60000;51.030;7.024;2023-04-07T05:17:46;8.28;93.05
72128;DHT22;60000;51.030;7.024;2023-04-07T05:20:15;8.25;92.99
72128;DHT22;60000;51.030;7.024;2023-04-07T05:22:40;8.24;92.98
72128;DHT22;60000;51.030;7.024;2023-04-07T05:25:06;8.24;93.02
72128;DHT22;60000;51.030;7.024;2023-04-07T05:27:32;8.21;92.86
72128;DHT22;60000;51.030;7.024;2023-04-07T05:29:57;8.25;92.69
72128;DHT22;60000;51.030;7.024;2023-04-07T05:32:23;8.19;92.76
72128;DHT22;60000;51.030;7.024;2023-04-07T05:34:48;8.21;92.63
72128;DHT22;60000;51.030;7.024;2023-04-07T05:37:14;8.19;92.63
72128;DHT22;60000;51.030;7.024;2023-04-07T05:39:39;8.15;92.66
72128;DHT22;60000;51.030;7.024;2023-04-07T05:42:05;8.15;92.76
72128;DHT22;60000;51.030;7.024;2023-04-07T05:44:30;8.16;92.57
72128;DHT22;60000;51.030;7.024;2023-04-07T05:46:55;8.13;92.63
72128;DHT22;60000;51.030;7.024;2023-04-07T05:49:20;8.16;92.53
72128;DHT22;60000;51.030;7.024;2023-04-07T05:51:46;8.13;92.57
72128;DHT22;60000;51.030;7.024;2023-04-07T05:54:11;8.13;92.67
72128;DHT22;60000;51.030;7.024;2023-04-07T05:56:36;8.13;92.59
72128;DHT22;60000;51.030;7.024;2023-04-07T05:59:02;8.12;92.60
72128;DHT22;60000;51.030;7.024;2023-04-07T06:01:28;8.12;92.63
72128;DHT22;60000;51.030;7.024;2023-04-07T06:03:53;8.11;92.72
72128;DHT22;60000;51.030;7.024;2023-04-07T06:06:19;8.09;92.76
72128;DHT22;60000;51.030;7.024;2023-04-07T06:08:45;8.09;92.75
72128;DHT22;60000;51.030;7.024;2023-04-07T06:11:11;8.09;92.74
72128;DHT22;60000;51.030;7.024;2023-04-07T06:13:36;8.09;92.81
72128;DHT22;60000;51.030;7.024;2023-04-07T06:16:02;8.09;92.80
72128;DHT22;60000;51.030;7.024;2023-04-07T06:18:27;8.08;92.91
72128;DHT22;60000;51.030;7.024;2023-04-07T06:20:52;8.09;92.86
72128;DHT22;60000;51.030;7.024;2023-04-07T06:23:18;8.11;92.64
72128;DHT22;60000;51.030;7.024;2023-04-07T06:25:43;8.09;92.73
72128;DHT22;60000;51.030;7.024;2023-04-07T06:28:09;8.09;92.82
72128;DHT22;60000;51.030;7.024;2023-04-07T06:30:34;8.08;92.92
72128;DHT22;60000;51.030;7.024;2023-04-07T06:33:00;8.11;92.77
72128;DHT22;60000;51.030;7.024;2023-04-07T06:35:25;8.11;92.73
72128;DHT22;60000;51.030;7.024;2023-04-07T06:37:51;8.11;92.78
72128;DHT22;60000;51.030;7.024;2023-04-07T06:40:17;8.11;92.67
72128;DHT22;60000;51.030;7.024;2023-04-07T06:42:42;8.12;92.77
72128;DHT22;60000;51.030;7.024;2023-04-07T06:45:08;8.12;92.76
72128;DHT22;60000;51.030;7.024;2023-04-07T06:47:33;8.11;92.69
72128;DHT22;60000;51.030;7.024;2023-04-07T06:49:59;8.12;92.77
72128;DHT22;60000;51.030;7.024;2023-04-07T06:52:24;8.12;92.77
72128;DHT22;60000;51.030;7.024;2023-04-07T06:54:50;8.12;92.71
72128;DHT22;60000;51.030;7.024;2023-04-07T06:57:15;8.12;92.81
72128;DHT22;60000;51.030;7.024;2023-04-07T06:59:41;8.15;92.80
72128;DHT22;60000;51.030;7.024;2023-04-07T07:02:06;8.11;92.69
72128;DHT22;60000;51.030;7.024;2023-04-07T07:04:33;8.11;92.76
72128;DHT22;60000;51.030;7.024;2023-04-07T07:06:58;8.12;92.79
72128;DHT22;60000;51.030;7.024;2023-04-07T07:09:24;8.16;92.80
72128;DHT22;60000;51.030;7.024;2023-04-07T07:11:51;8.13;92.70
72128;DHT22;60000;51.030;7.024;2023-04-07T07:14:16;8.15;92.76
72128;DHT22;60000;51.030;7.024;2023-04-07T07:16:42;8.13;92.54
72128;DHT22;60000;51.030;7.024;2023-04-07T07:19:07;8.15;92.72
72128;DHT22;60000;51.030;7.024;2023-04-07T07:21:33;8.15;92.70
72128;DHT22;60000;51.030;7.024;2023-04-07T07:23:58;8.15;92.79
72128;DHT22;60000;51.030;7.024;2023-04-07T07:26:24;8.16;92.78
72128;DHT22;60000;51.030;7.024;2023-04-07T07:28:50;8.18;92.78
72128;DHT22;60000;51.030;7.024;2023-04-07T07:31:16;8.16;92.52
72128;DHT22;60000;51.030;7.024;2023-04-07T07:33:41;8.18;92.50
72128;DHT22;60000;51.030;7.024;2023-04-07T07:36:09;8.21;92.42
72128;DHT22;60000;51.030;7.024;2023-04-07T07:38:35;8.19;92.60
72128;DHT22;60000;51.030;7.024;2023-04-07T07:41:01;8.21;92.53
72128;DHT22;60000;51.030;7.024;2023-04-07T07:43:26;8.26;92.68
72128;DHT22;60000;51.030;7.024;2023-04-07T07:45:52;8.29;92.47
72128;DHT22;60000;51.030;7.024;2023-04-07T07:48:17;8.31;92.26
72128;DHT22;60000;51.030;7.024;2023-04-07T07:50:42;8.31;92.38
72128;DHT22;60000;51.030;7.024;2023-04-07T07:53:09;8.32;92.36
72128;DHT22;60000;51.030;7.024;2023-04-07T07:55:34;8.36;92.12
72128;DHT22;60000;51.030;7.024;2023-04-07T07:58:00;8.35;92.21
72128;DHT22;60000;51.030;7.024;2023-04-07T08:00:25;8.36;92.10
72128;DHT22;60000;51.030;7.024;2023-04-07T08:02:50;8.42;92.04
72128;DHT22;60000;51.030;7.024;2023-04-07T08:05:16;8.42;91.78
72128;DHT22;60000;51.030;7.024;2023-04-07T08:07:41;8.43;91.69
72128;DHT22;60000;51.030;7.024;2023-04-07T08:10:08;8.43;91.57
72128;DHT22;60000;51.030;7.024;2023-04-07T08:12:33;8.50;91.83
72128;DHT22;60000;51.030;7.024;2023-04-07T08:14:59;8.52;91.79
72128;DHT22;60000;51.030;7.024;2023-04-07T08:17:24;8.53;91.69
72128;DHT22;60000;51.030;7.024;2023-04-07T08:19:49;8.54;91.49
72128;DHT22;60000;51.030;7.024;2023-04-07T08:22:15;8.53;91.39
72128;DHT22;60000;51.030;7.024;2023-04-07T08:24:40;8.57;91.40
72128;DHT22;60000;51.030;7.024;2023-04-07T08:27:05;8.59;91.38
72128;DHT22;60000;51.030;7.024;2023-04-07T08:29:31;8.63;91.25
72128;DHT22;60000;51.030;7.024;2023-04-07T08:31:56;8.63;91.29
72128;DHT22;60000;51.030;7.024;2023-04-07T08:34:21;8.67;91.43
72128;DHT22;60000;51.030;7.024;2023-04-07T08:36:47;8.69;91.38
72128;DHT22;60000;51.030;7.024;2023-04-07T08:39:12;8.71;91.16
72128;DHT22;60000;51.030;7.024;2023-04-07T08:41:39;8.76;91.33
72128;DHT22;60000;51.030;7.024;2023-04-07T08:44:07;8.80;91.31
72128;DHT22;60000;51.030;7.024;2023-04-07T08:46:33;8.83;90.94
72128;DHT22;60000;51.030;7.024;2023-04-07T08:49:00;8.81;90.88
72128;DHT22;60000;51.030;7.024;2023-04-07T08:51:30;8.80;90.60
72128;DHT22;60000;51.030;7.024;2023-04-07T08:54:09;8.83;90.34
72128;DHT22;60000;51.030;7.024;2023-04-07T08:56:37;8.88;90.90
72128;DHT22;60000;51.030;7.024;2023-04-07T08:59:06;8.92;90.84
72128;DHT22;60000;51.030;7.024;2023-04-07T09:01:33;8.92;90.50
72128;DHT22;60000;51.030;7.024;2023-04-07T09:04:01;8.97;90.63
72128;DHT22;60000;51.030;7.024;2023-04-07T09:06:29;9.00;90.18
72128;DHT22;60000;51.030;7.024;2023-04-07T09:08:59;9.03;90.50
72128;DHT22;60000;51.030;7.024;2023-04-07T09:11:25;9.08;90.23
72128;DHT22;60000;51.030;7.024;2023-04-07T09:13:51;9.14;90.32
72128;DHT22;60000;51.030;7.024;2023-04-07T09:16:16;9.18;89.76
72128;DHT22;60000;51.030;7.024;2023-04-07T09:18:42;9.21;89.75
72128;DHT22;60000;51.030;7.024;2023-04-07T09:21:07;9.27;89.50
72128;DHT22;60000;51.030;7.024;2023-04-07T09:23:35;9.31;89.21
72128;DHT22;60000;51.030;7.024;2023-04-07T09:26:24;9.32;88.79
72128;DHT22;60000;51.030;7.024;2023-04-07T09:29:00;9.32;88.75
72128;DHT22;60000;51.030;7.024;2023-04-07T09:31:43;9.36;88.96
72128;DHT22;60000;51.030;7.024;2023-04-07T09:34:38;9.39;88.89
72128;DHT22;60000;51.030;7.024;2023-04-07T09:37:05;9.42;89.01
72128;DHT22;60000;51.030;7.024;2023-04-07T09:39:31;9.49;88.98
72128;DHT22;60000;51.030;7.024;2023-04-07T09:41:57;9.51;89.01
72128;DHT22;60000;51.030;7.024;2023-04-07T09:44:23;9.52;88.85
72128;DHT22;60000;51.030;7.024;2023-04-07T09:46:51;9.53;88.97
72128;DHT22;60000;51.030;7.024;2023-04-07T09:49:16;9.58;89.17
72128;DHT22;60000;51.030;7.024;2023-04-07T09:52:02;9.56;88.62
72128;DHT22;60000;51.030;7.024;2023-04-07T09:54:40;9.59;88.73
72128;DHT22;60000;51.030;7.024;2023-04-07T09:57:07;9.56;88.66
72128;DHT22;60000;51.030;7.024;2023-04-07T09:59:35;9.56;88.66
72128;DHT22;60000;51.030;7.024;2023-04-07T10:02:01;9.58;88.99
72128;DHT22;60000;51.030;7.024;2023-04-07T10:04:27;9.59;88.69
72128;DHT22;60000;51.030;7.024;2023-04-07T10:06:54;9.65;89.03
72128;DHT22;60000;51.030;7.024;2023-04-07T10:09:23;9.70;88.89
72128;DHT22;60000;51.030;7.024;2023-04-07T10:11:51;9.66;88.18
72128;DHT22;60000;51.030;7.024;2023-04-07T10:14:22;9.68;88.58
72128;DHT22;60000;51.030;7.024;2023-04-07T10:16:49;9.69;88.35
72128;DHT22;60000;51.030;7.024;2023-04-07T10:19:16;9.70;87.59
72128;DHT22;60000;51.030;7.024;2023-04-07T10:21:42;9.69;87.85
72128;DHT22;60000;51.030;7.024;2023-04-07T10:24:41;9.72;88.09
72128;DHT22;60000;51.030;7.024;2023-04-07T10:27:13;9.76;88.25
72128;DHT22;60000;51.030;7.024;2023-04-07T10:29:41;9.72;87.89
72128;DHT22;60000;51.030;7.024;2023-04-07T10:32:07;9.65;88.24
72128;DHT22;60000;51.030;7.024;2023-04-07T10:34:54;9.63;87.76
72128;DHT22;60000;51.030;7.024;2023-04-07T10:37:22;9.60;88.12
72128;DHT22;60000;51.030;7.024;2023-04-07T10:39:49;9.60;88.57
72128;DHT22;60000;51.030;7.024;2023-04-07T10:45:06;9.68;88.69
72128;DHT22;60000;51.030;7.024;2023-04-07T10:47:33;9.72;88.92
72128;DHT22;60000;51.030;7.024;2023-04-07T10:50:21;9.70;88.04
72128;DHT22;60000;51.030;7.024;2023-04-07T10:53:02;9.72;87.59
72128;DHT22;60000;51.030;7.024;2023-04-07T11:03:27;9.87;87.77
72128;DHT22;60000;51.030;7.024;2023-04-07T11:05:52;9.97;88.26
72128;DHT22;60000;51.030;7.024;2023-04-07T11:10:58;10.04;87.47
72128;DHT22;60000;51.030;7.024;2023-04-07T11:13:23;10.07;87.48
72128;DHT22;60000;51.030;7.024;2023-04-07T11:15:51;10.18;87.53
72128;DHT22;60000;51.030;7.024;2023-04-07T11:18:18;10.25;87.00
72128;DHT22;60000;51.030;7.024;2023-04-07T11:20:51;10.30;86.66
72128;DHT22;60000;51.030;7.024;2023-04-07T11:23:18;10.30;85.63
72128;DHT22;60000;51.030;7.024;2023-04-07T11:25:47;10.38;86.77
72128;DHT22;60000;51.030;7.024;2023-04-07T11:28:14;10.45;86.09
72128;DHT22;60000;51.030;7.024;2023-04-07T11:30:50;10.41;85.46
72128;DHT22;60000;51.030;7.024;2023-04-07T11:33:17;10.40;85.34
72128;DHT22;60000;51.030;7.024;2023-04-07T11:36:00;10.34;84.82
72128;DHT22;60000;51.030;7.024;2023-04-07T11:38:35;10.36;84.89
72128;DHT22;60000;51.030;7.024;2023-04-07T11:41:10;10.36;85.11
72128;DHT22;60000;51.030;7.024;2023-04-07T11:43:36;10.37;84.45
72128;DHT22;60000;51.030;7.024;2023-04-07T11:46:22;10.34;84.50
72128;DHT22;60000;51.030;7.024;2023-04-07T11:48:47;10.34;84.50
72128;DHT22;60000;51.030;7.024;2023-04-07T11:51:21;10.31;84.68
72128;DHT22;60000;51.030;7.024;2023-04-07T11:53:55;10.27;84.82
72128;DHT22;60000;51.030;7.024;2023-04-07T11:56:21;10.20;84.91
72128;DHT22;60000;51.030;7.024;2023-04-07T11:58:50;10.11;84.45
72128;DHT22;60000;51.030;7.024;2023-04-07T12:01:16;10.03;84.75
72128;DHT22;60000;51.030;7.024;2023-04-07T12:04:01;9.97;85.22
72128;DHT22;60000;51.030;7.024;2023-04-07T12:06:32;9.94;85.42
72128;DHT22;60000;51.030;7.024;2023-04-07T12:08:59;9.94;85.89
72128;DHT22;60000;51.030;7.024;2023-04-07T12:11:25;10.01;85.96
72128;DHT22;60000;51.030;7.024;2023-04-07T12:13:51;10.11;85.71
72128;DHT22;60000;51.030;7.024;2023-04-07T12:16:17;10.24;85.63
72128;DHT22;60000;51.030;7.024;2023-04-07T12:18:43;10.33;85.07
72128;DHT22;60000;51.030;7.024;2023-04-07T12:21:08;10.40;85.17
72128;DHT22;60000;51.030;7.024;2023-04-07T12:23:33;10.45;84.63
72128;DHT22;60000;51.030;7.024;2023-04-07T12:25:59;10.61;85.02
72128;DHT22;60000;51.030;7.024;2023-04-07T12:28:25;10.78;85.64
72128;DHT22;60000;51.030;7.024;2023-04-07T12:30:50;10.91;85.02
72128;DHT22;60000;51.030;7.024;2023-04-07T12:33:16;11.02;84.13
72128;DHT22;60000;51.030;7.024;2023-04-07T12:35:41;11.06;83.88
72128;DHT22;60000;51.030;7.024;2023-04-07T12:38:06;11.02;82.78
72128;DHT22;60000;51.030;7.024;2023-04-07T12:40:32;10.96;82.74
72128;DHT22;60000;51.030;7.024;2023-04-07T12:42:58;10.86;82.03
72128;DHT22;60000;51.030;7.024;2023-04-07T12:45:23;10.80;82.10
72128;DHT22;60000;51.030;7.024;2023-04-07T12:47:49;10.78;83.47
72128;DHT22;60000;51.030;7.024;2023-04-07T12:50:15;10.73;82.68
72128;DHT22;60000;51.030;7.024;2023-04-07T12:52:41;10.80;83.52
72128;DHT22;60000;51.030;7.024;2023-04-07T12:55:07;10.89;82.97
72128;DHT22;60000;51.030;7.024;2023-04-07T12:57:33;10.92;82.63
72128;DHT22;60000;51.030;7.024;2023-04-07T13:00:03;10.95;83.19
72128;DHT22;60000;51.030;7.024;2023-04-07T13:02:29;11.00;82.90
72128;DHT22;60000;51.030;7.024;2023-04-07T13:04:55;11.03;82.58
72128;DHT22;60000;51.030;7.024;2023-04-07T13:07:20;11.08;82.89
72128;DHT22;60000;51.030;7.024;2023-04-07T13:09:46;11.12;82.19
72128;DHT22;60000;51.030;7.024;2023-04-07T13:12:12;11.09;82.20
72128;DHT22;60000;51.030;7.024;2023-04-07T13:14:38;11.20;82.47
72128;DHT22;60000;51.030;7.024;2023-04-07T13:17:05;11.23;82.14
72128;DHT22;60000;51.030;7.024;2023-04-07T13:19:31;11.24;80.88
72128;DHT22;60000;51.030;7.024;2023-04-07T13:21:56;11.24;81.92
72128;DHT22;60000;51.030;7.024;2023-04-07T13:24:22;11.31;81.06
72128;DHT22;60000;51.030;7.024;2023-04-07T13:26:47;11.27;80.60
72128;DHT22;60000;51.030;7.024;2023-04-07T13:29:13;11.30;81.77
72128;DHT22;60000;51.030;7.024;2023-04-07T13:31:38;11.22;81.01
72128;DHT22;60000;51.030;7.024;2023-04-07T13:34:03;11.20;81.58
72128;DHT22;60000;51.030;7.024;2023-04-07T13:36:29;11.13;81.38
72128;DHT22;60000;51.030;7.024;2023-04-07T13:38:55;11.13;81.55
72128;DHT22;60000;51.030;7.024;2023-04-07T13:41:21;11.12;80.51
72128;DHT22;60000;51.030;7.024;2023-04-07T13:43:46;11.16;81.42
72128;DHT22;60000;51.030;7.024;2023-04-07T13:46:12;11.23;81.53
72128;DHT22;60000;51.030;7.024;2023-04-07T13:48:40;11.26;81.03
72128;DHT22;60000;51.030;7.024;2023-04-07T13:51:05;11.26;81.43
72128;DHT22;60000;51.030;7.024;2023-04-07T13:53:30;11.22;80.33
72128;DHT22;60000;51.030;7.024;2023-04-07T13:55:56;11.23;80.97
72128;DHT22;60000;51.030;7.024;2023-04-07T13:58:21;11.31;81.72
72128;DHT22;60000;51.030;7.024;2023-04-07T14:00:46;11.38;80.72
72128;DHT22;60000;51.030;7.024;2023-04-07T14:03:12;11.40;80.49
72128;DHT22;60000;51.030;7.024;2023-04-07T14:05:37;11.40;80.76
72128;DHT22;60000;51.030;7.024;2023-04-07T14:08:02;11.37;80.03
72128;DHT22;60000;51.030;7.024;2023-04-07T14:10:27;11.30;80.64
72128;DHT22;60000;51.030;7.024;2023-04-07T14:12:53;11.29;81.27
72128;DHT22;60000;51.030;7.024;2023-04-07T14:15:18;11.22;80.88
72128;DHT22;60000;51.030;7.024;2023-04-07T14:17:44;11.16;81.21
72128;DHT22;60000;51.030;7.024;2023-04-07T14:20:09;11.13;81.75
72128;DHT22;60000;51.030;7.024;2023-04-07T14:22:35;11.09;81.57
72128;DHT22;60000;51.030;7.024;2023-04-07T14:25:00;11.05;81.53
72128;DHT22;60000;51.030;7.024;2023-04-07T14:27:25;11.05;81.90
72128;DHT22;60000;51.030;7.024;2023-04-07T14:29:50;11.00;81.84
72128;DHT22;60000;51.030;7.024;2023-04-07T14:32:17;10.99;81.88
72128;DHT22;60000;51.030;7.024;2023-04-07T14:34:42;11.02;82.00
72128;DHT22;60000;51.030;7.024;2023-04-07T14:37:07;11.05;82.07
72128;DHT22;60000;51.030;7.024;2023-04-07T14:39:32;11.09;82.26
72128;DHT22;60000;51.030;7.024;2023-04-07T14:41:58;11.09;81.28
72128;DHT22;60000;51.030;7.024;2023-04-07T14:44:24;11.13;81.09
72128;DHT22;60000;51.030;7.024;2023-04-07T14:46:50;11.23;81.71
72128;DHT22;60000;51.030;7.024;2023-04-07T14:49:15;11.29;80.29
72128;DHT22;60000;51.030;7.024;2023-04-07T14:51:40;11.27;79.81
72128;DHT22;60000;51.030;7.024;2023-04-07T14:54:06;11.30;80.20
72128;DHT22;60000;51.030;7.024;2023-04-07T14:56:32;11.34;79.80
72128;DHT22;60000;51.030;7.024;2023-04-07T14:58:57;11.33;79.80
72128;DHT22;60000;51.030;7.024;2023-04-07T15:01:22;11.41;80.25
72128;DHT22;60000;51.030;7.024;2023-04-07T15:03:50;11.41;79.86
72128;DHT22;60000;51.030;7.024;2023-04-07T15:06:15;11.53;80.39
72128;DHT22;60000;51.030;7.024;2023-04-07T15:08:41;11.63;79.69
72128;DHT22;60000;51.030;7.024;2023-04-07T15:11:07;11.73;79.17
72128;DHT22;60000;51.030;7.024;2023-04-07T15:13:32;11.77;78.60
72128;DHT22;60000;51.030;7.024;2023-04-07T15:16:08;11.85;78.76
72128;DHT22;60000;51.030;7.024;2023-04-07T15:18:34;11.79;77.94
72128;DHT22;60000;51.030;7.024;2023-04-07T15:21:00;11.74;77.42
72128;DHT22;60000;51.030;7.024;2023-04-07T15:23:25;11.73;78.32
72128;DHT22;60000;51.030;7.024;2023-04-07T15:25:50;11.70;78.39
72128;DHT22;60000;51.030;7.024;2023-04-07T15:28:20;11.70;78.19
72128;DHT22;60000;51.030;7.024;2023-04-07T15:30:45;11.63;77.99
72128;DHT22;60000;51.030;7.024;2023-04-07T15:33:11;11.61;77.96
72128;DHT22;60000;51.030;7.024;2023-04-07T15:35:36;11.53;77.77
72128;DHT22;60000;51.030;7.024;2023-04-07T15:38:02;11.56;78.28
72128;DHT22;60000;51.030;7.024;2023-04-07T15:40:27;11.56;78.52
72128;DHT22;60000;51.030;7.024;2023-04-07T15:42:52;11.43;78.40
72128;DHT22;60000;51.030;7.024;2023-04-07T15:45:18;11.43;79.29
72128;DHT22;60000;51.030;7.024;2023-04-07T15:47:43;11.46;79.15
72128;DHT22;60000;51.030;7.024;2023-04-07T15:50:09;11.43;78.50
72128;DHT22;60000;51.030;7.024;2023-04-07T15:52:34;11.41;79.05
72128;DHT22;60000;51.030;7.024;2023-04-07T15:55:00;11.38;78.73